Weather at Best Western Plus Bayside Inn Helipad

Public forecast

Using degrees Fahrenheit for public forecast. Weather courtesy of forecast.io.

Closest aviation weather report (METAR) to Best Western Plus Bayside Inn Helipad

Closest report is San Diego International Airport, 1.4 nm (2.6 km) NW.

2024/06/15 04:51 (retrieved 50 minutes ago)

KSAN 150451Z 29004KT 10SM SCT010 17/15 A2991 RMK AO2 SLP127 T01720150

Closest aviation forecast (TAF) to Best Western Plus Bayside Inn Helipad

Forecast is more than 12 hours old.

Closest forecast is Camp Pendleton MCAS (Munn Field) Airport, 36.2 nm (67.0 km) NNW.

2024/06/14 17:15 Ammendment (retrieved 12 hours ago)

AMD KNFG 1417/1515 VRB04KT 9999 SKC QNH2994INS TEMPO 1419/1501 23008G18KT FM150230 VRB04KT 9999 SCT010 QNH2986INS BECMG 1504/1506 BKN010 QNH2982INS T24/1421Z T15/1508Z AMD 1715